Clipper Saga — LAFY6 — position and weather

sailwx.info

Track history (hours):
 
Tides and Currents Weather Stations Pressure Air Temp Water Temp Dewpoint Dewpoint Depression Visibility Wind Speed Wind Dir Waves Ship Positions

Clipper Saga

Last reported at 2014-Oct-30 16:33 UTC. Time now 2014-Oct-30 16:52 UTC.
Position N 53°26' E 014°35'.

Length 89 m; draft 5.9 m.

Type: Ship (hazmat cat C). MMSI: 246657008.

Date/timePositionNaut miles runAvg speedWind from/ knotsBaromVisibWave heightAir tempDewpointWater temp
2014-Oct-30 16:33N 53°26' E 014°35'0 0.0
2014-Oct-30 15:33N 53°26' E 014°35'0 0.0
2014-Oct-30 14:33N 53°26' E 014°35'0 0.0
2014-Oct-30 13:30N 53°26' E 014°35'0 0.0
2014-Oct-30 12:33N 53°26' E 014°35'0 0.0
2014-Oct-30 11:33N 53°26' E 014°35'0 0.0
2014-Oct-30 10:33N 53°26' E 014°35'0 0.0
2014-Oct-30 09:33N 53°26' E 014°35'0 0.0
2014-Oct-30 08:33N 53°26' E 014°35'0 0.4
2014-Oct-30 07:32N 53°26' E 014°35'0 0.0
2014-Oct-30 06:29N 53°26' E 014°35'0 0.0
2014-Oct-30 05:32N 53°26' E 014°35'0 0.0
2014-Oct-30 04:32N 53°26' E 014°35'0 0.0
2014-Oct-30 03:32N 53°26' E 014°35'0 0.0
2014-Oct-30 02:32N 53°26' E 014°35'0 0.0
2014-Oct-30 01:32N 53°26' E 014°35'0 0.0
2014-Oct-30 00:32N 53°26' E 014°35'0 0.0
2014-Oct-29 23:32N 53°26' E 014°35'0 0.0
2014-Oct-29 22:32N 53°26' E 014°35'0 0.0
2014-Oct-29 21:32N 53°26' E 014°35'0 0.0
2014-Oct-29 20:32N 53°26' E 014°35'0 0.0
2014-Oct-29 19:32N 53°26' E 014°35'0 0.0
2014-Oct-29 18:32N 53°26' E 014°35'2 2.0
2014-Oct-29 17:33N 53°28' E 014°36'8 8.5
2014-Oct-29 16:34N 53°36' E 014°35'1010.3
2014-Oct-29 15:33N 53°45' E 014°26'9 8.8
2014-Oct-29 14:33N 53°52' E 014°17'8 8.5
2014-Oct-29 13:33N 54°00' E 014°15'3 3.0
2014-Oct-29 12:32N 54°03' E 014°17'0 0.0
2014-Oct-29 11:32N 54°03' E 014°17'0 0.0
2014-Oct-29 10:32N 54°03' E 014°17'0 0.0
2014-Oct-29 09:32N 54°03' E 014°17'2 1.9
2014-Oct-29 08:33N 54°03' E 014°14'9 9.2
2014-Oct-29 07:33N 54°12' E 014°11'8 8.4
2014-Oct-29 06:33N 54°20' E 014°04'21 8.8
2014-Oct-29 04:07N 54°38' E 013°45'610.0
2014-Oct-29 03:30N 54°43' E 013°39'9 9.1
2014-Oct-29 02:28N 54°46' E 013°23'1010.1
2014-Oct-29 01:27N 54°46' E 013°05'910.0
2014-Oct-29 00:31N 54°46' E 012°49'1110.5
2014-Oct-28 23:30N 54°41' E 012°33'1111.4
2014-Oct-28 22:32N 54°34' E 012°18'1111.2
2014-Oct-28 21:33N 54°25' E 012°08'1211.9
2014-Oct-28 20:33N 54°25' E 011°48'2711.5
2014-Oct-28 18:14N 54°35' E 011°05'912.5
2014-Oct-28 17:31N 54°34' E 010°50'1111.4
2014-Oct-28 16:33N 54°33' E 010°31'1110.5
2014-Oct-28 15:33N 54°28' E 010°15'7 7.0
2014-Oct-28 14:33N 54°22' E 010°08'1 0.9
2014-Oct-28 13:33N 54°22' E 010°07'1 1.4
2014-Oct-28 12:33N 54°22' E 010°04'8 7.6
2014-Oct-28 11:33N 54°22' E 009°51'8 7.4
2014-Oct-28 10:33N 54°18' E 009°41'8 7.9
2014-Oct-28 09:29N 54°11' E 009°31'8 8.2
2014-Oct-28 08:30N 54°07' E 009°20'8 8.8
2014-Oct-28 07:33N 53°59' E 009°16'7 6.7
2014-Oct-28 06:33N 53°54' E 009°09'1 1.4
2014-Oct-28 05:33N 53°53' E 009°11'9 9.3
2014-Oct-28 04:33N 53°47' E 009°23'10 9.7
2014-Oct-28 03:33N 53°39' E 009°31'9 8.9
2014-Oct-28 02:33N 53°34' E 009°44'7 7.1
2014-Oct-28 01:33N 53°32' E 009°55'3 2.5
2014-Oct-28 00:31N 53°30' E 009°57'0 0.0
2014-Oct-27 23:28N 53°30' E 009°57'0 0.0
2014-Oct-27 22:31N 53°30' E 009°57'0 0.0
2014-Oct-27 21:32N 53°30' E 009°57'0 0.0
2014-Oct-27 20:28N 53°30' E 009°57'0 0.0
2014-Oct-27 19:32N 53°30' E 009°57'0 0.0
2014-Oct-27 18:28N 53°30' E 009°57'0 0.0
2014-Oct-27 17:32N 53°30' E 009°57'0 0.0
2014-Oct-27 16:31N 53°30' E 009°57'0 0.0
2014-Oct-27 15:28N 53°30' E 009°57'0 0.0
2014-Oct-27 14:28N 53°30' E 009°57'0 0.0
2014-Oct-27 13:28N 53°30' E 009°57'0 0.0
2014-Oct-27 12:32N 53°30' E 009°57'0 0.0
2014-Oct-27 11:32N 53°30' E 009°57'3 2.6
2014-Oct-27 10:33N 53°32' E 009°55'9 9.3
2014-Oct-27 09:33N 53°34' E 009°40'9 9.4
2014-Oct-27 08:33N 53°41' E 009°30'10 9.5
2014-Oct-27 07:33N 53°50' E 009°21'8 8.5
2014-Oct-27 06:33N 53°53' E 009°09'6 5.5
2014-Oct-27 05:29N 53°58' E 009°15'16 8.1
2014-Oct-27 03:33N 54°11' E 009°30'8 8.0
2014-Oct-27 02:30N 54°17' E 009°40'8 8.1
2014-Oct-27 01:33N 54°22' E 009°50'7 7.0
2014-Oct-27 00:33N 54°22' E 010°02'4 3.8
2014-Oct-26 23:33N 54°22' E 010°09'2 2.0
2014-Oct-26 22:33N 54°23' E 010°11'1010.2
2014-Oct-26 21:33N 54°31' E 010°22'10 9.6
2014-Oct-26 20:33N 54°35' E 010°37'32 9.6
2014-Oct-26 17:15N 54°30' E 011°31'810.4
2014-Oct-26 16:29N 54°27' E 011°44'1010.2
2014-Oct-26 15:33N 54°27' E 012°00'60 9.5
2014-Oct-26 09:17N 54°57' E 013°30'710.2
2014-Oct-26 08:33N 54°59' E 013°42'1010.2
2014-Oct-26 07:33N 55°02' E 013°59'10 9.8
2014-Oct-26 06:33N 55°09' E 014°11'1010.3
2014-Oct-26 05:33N 55°17' E 014°22'1010.5
2014-Oct-26 04:33N 55°25' E 014°34'1010.3
2014-Oct-26 03:33N 55°30' E 014°50'1110.9
2014-Oct-26 02:31N 55°36' E 015°08'188 4.0
2014-Oct-24 03:24N 55°44' E 020°40'20 4.0
2014-Oct-23 22:19N 55°46' E 020°04'11 9.9
2014-Oct-23 21:11N 55°46' E 019°44'14510.7
2014-Oct-23 07:33N 55°32' E 015°28'1110.5
2014-Oct-23 06:33N 55°29' E 015°10'1110.9
2014-Oct-23 05:33N 55°26' E 014°52'1010.5
2014-Oct-23 04:33N 55°21' E 014°36'1111.2
2014-Oct-23 03:33N 55°12' E 014°23'1111.3
2014-Oct-23 02:33N 55°03' E 014°11'1110.9
2014-Oct-23 01:33N 54°58' E 013°54'6218.5
2014-Oct-22 22:14N 54°33' E 012°17'3 3.5
2014-Oct-22 21:30N 54°30' E 012°16'3 2.8
2014-Oct-22 20:33N 54°28' E 012°14'2 2.4
2014-Oct-22 19:33N 54°30' E 012°15'10 9.9
2014-Oct-22 18:33N 54°25' E 012°01'4511.2
2014-Oct-22 14:33N 54°34' E 010°45'1111.1
2014-Oct-22 13:32N 54°31' E 010°26'1010.5
2014-Oct-22 12:33N 54°25' E 010°13'4 4.0
2014-Oct-22 11:33N 54°22' E 010°08'7 7.3
2014-Oct-22 10:33N 54°21' E 009°55'7 7.4
2014-Oct-22 09:33N 54°19' E 009°43'7 7.4
2014-Oct-22 08:33N 54°13' E 009°36'16 7.3
2014-Oct-22 06:19N 54°00' E 009°18'6 8.3
2014-Oct-22 05:33N 53°55' E 009°12'12 3.9
2014-Oct-22 02:33N 53°50' E 008°53'10 9.8
2014-Oct-22 01:33N 53°56' E 008°40'1010.3
2014-Oct-22 00:33N 53°59' E 008°23'1110.7
2014-Oct-21 23:33N 53°59' E 008°05'8 7.5
2014-Oct-21 22:33N 53°57' E 007°52'9 7.8
2014-Oct-21 21:27N 53°55' E 007°38'56 9.5
2014-Oct-21 15:33N 53°41' E 006°06'1211.9
2014-Oct-21 14:33N 53°38' E 005°47'1211.6
2014-Oct-21 13:33N 53°34' E 005°28'1211.5
2014-Oct-21 12:33N 53°31' E 005°10'1111.1
2014-Oct-21 11:33N 53°27' E 004°53'1010.3
2014-Oct-21 10:33N 53°20' E 004°39'3610.7
2014-Oct-21 07:10N 52°48' E 004°12'910.4
2014-Oct-21 06:20N 52°41' E 004°02'4711.1
2014-Oct-21 02:07N 52°01' E 003°25'712.2
2014-Oct-21 01:33N 51°54' E 003°22'1111.3
2014-Oct-21 00:33N 51°43' E 003°17'1010.2
2014-Oct-20 23:33N 51°34' E 003°25'1010.4
2014-Oct-20 22:33N 51°26' E 003°36'7 6.6
2014-Oct-20 21:33N 51°22' E 003°44'8 8.2
2014-Oct-20 20:33N 51°24' E 003°57'6 6.1
2014-Oct-20 19:33N 51°22' E 004°07'8 8.3
2014-Oct-20 18:34N 51°18' E 004°18'5 4.8
2014-Oct-20 17:31N 51°14' E 004°23'  
Track history (hours):
 
Tides and Currents Weather Stations Pressure Air Temp Water Temp Dewpoint Dewpoint Depression Visibility Wind Speed Wind Dir Waves Ship Positions

Clipper Saga

Last reported at 2014-Oct-30 16:33 UTC. Time now 2014-Oct-30 16:52 UTC.
Position N 53°26' E 014°35'.

Length 89 m; draft 5.9 m.

Type: Ship (hazmat cat C). MMSI: 246657008.

Date/timePositionNaut miles runAvg speedWind from/ knotsBaromVisibWave heightAir tempDewpointWater temp
2014-Oct-30 16:33N 53°26' E 014°35'0 0.0
2014-Oct-30 15:33N 53°26' E 014°35'0 0.0
2014-Oct-30 14:33N 53°26' E 014°35'0 0.0
2014-Oct-30 13:30N 53°26' E 014°35'0 0.0
2014-Oct-30 12:33N 53°26' E 014°35'0 0.0
2014-Oct-30 11:33N 53°26' E 014°35'0 0.0
2014-Oct-30 10:33N 53°26' E 014°35'0 0.0
2014-Oct-30 09:33N 53°26' E 014°35'0 0.0
2014-Oct-30 08:33N 53°26' E 014°35'0 0.4
2014-Oct-30 07:32N 53°26' E 014°35'0 0.0
2014-Oct-30 06:29N 53°26' E 014°35'0 0.0
2014-Oct-30 05:32N 53°26' E 014°35'0 0.0
2014-Oct-30 04:32N 53°26' E 014°35'0 0.0
2014-Oct-30 03:32N 53°26' E 014°35'0 0.0
2014-Oct-30 02:32N 53°26' E 014°35'0 0.0
2014-Oct-30 01:32N 53°26' E 014°35'0 0.0
2014-Oct-30 00:32N 53°26' E 014°35'0 0.0
2014-Oct-29 23:32N 53°26' E 014°35'0 0.0
2014-Oct-29 22:32N 53°26' E 014°35'0 0.0
2014-Oct-29 21:32N 53°26' E 014°35'0 0.0
2014-Oct-29 20:32N 53°26' E 014°35'0 0.0
2014-Oct-29 19:32N 53°26' E 014°35'0 0.0
2014-Oct-29 18:32N 53°26' E 014°35'2 2.0
2014-Oct-29 17:33N 53°28' E 014°36'8 8.5
2014-Oct-29 16:34N 53°36' E 014°35'1010.3
2014-Oct-29 15:33N 53°45' E 014°26'9 8.8
2014-Oct-29 14:33N 53°52' E 014°17'8 8.5
2014-Oct-29 13:33N 54°00' E 014°15'3 3.0
2014-Oct-29 12:32N 54°03' E 014°17'0 0.0
2014-Oct-29 11:32N 54°03' E 014°17'0 0.0
2014-Oct-29 10:32N 54°03' E 014°17'0 0.0
2014-Oct-29 09:32N 54°03' E 014°17'2 1.9
2014-Oct-29 08:33N 54°03' E 014°14'9 9.2
2014-Oct-29 07:33N 54°12' E 014°11'8 8.4
2014-Oct-29 06:33N 54°20' E 014°04'21 8.8
2014-Oct-29 04:07N 54°38' E 013°45'610.0
2014-Oct-29 03:30N 54°43' E 013°39'9 9.1
2014-Oct-29 02:28N 54°46' E 013°23'1010.1
2014-Oct-29 01:27N 54°46' E 013°05'910.0
2014-Oct-29 00:31N 54°46' E 012°49'1110.5
2014-Oct-28 23:30N 54°41' E 012°33'1111.4
2014-Oct-28 22:32N 54°34' E 012°18'1111.2
2014-Oct-28 21:33N 54°25' E 012°08'1211.9
2014-Oct-28 20:33N 54°25' E 011°48'2711.5
2014-Oct-28 18:14N 54°35' E 011°05'912.5
2014-Oct-28 17:31N 54°34' E 010°50'1111.4
2014-Oct-28 16:33N 54°33' E 010°31'1110.5
2014-Oct-28 15:33N 54°28' E 010°15'7 7.0
2014-Oct-28 14:33N 54°22' E 010°08'1 0.9
2014-Oct-28 13:33N 54°22' E 010°07'1 1.4
2014-Oct-28 12:33N 54°22' E 010°04'8 7.6
2014-Oct-28 11:33N 54°22' E 009°51'8 7.4
2014-Oct-28 10:33N 54°18' E 009°41'8 7.9
2014-Oct-28 09:29N 54°11' E 009°31'8 8.2
2014-Oct-28 08:30N 54°07' E 009°20'8 8.8
2014-Oct-28 07:33N 53°59' E 009°16'7 6.7
2014-Oct-28 06:33N 53°54' E 009°09'1 1.4
2014-Oct-28 05:33N 53°53' E 009°11'9 9.3
2014-Oct-28 04:33N 53°47' E 009°23'10 9.7
2014-Oct-28 03:33N 53°39' E 009°31'9 8.9
2014-Oct-28 02:33N 53°34' E 009°44'7 7.1
2014-Oct-28 01:33N 53°32' E 009°55'3 2.5
2014-Oct-28 00:31N 53°30' E 009°57'0 0.0
2014-Oct-27 23:28N 53°30' E 009°57'0 0.0
2014-Oct-27 22:31N 53°30' E 009°57'0 0.0
2014-Oct-27 21:32N 53°30' E 009°57'0 0.0
2014-Oct-27 20:28N 53°30' E 009°57'0 0.0
2014-Oct-27 19:32N 53°30' E 009°57'0 0.0
2014-Oct-27 18:28N 53°30' E 009°57'0 0.0
2014-Oct-27 17:32N 53°30' E 009°57'0 0.0
2014-Oct-27 16:31N 53°30' E 009°57'0 0.0
2014-Oct-27 15:28N 53°30' E 009°57'0 0.0
2014-Oct-27 14:28N 53°30' E 009°57'0 0.0
2014-Oct-27 13:28N 53°30' E 009°57'0 0.0
2014-Oct-27 12:32N 53°30' E 009°57'0 0.0
2014-Oct-27 11:32N 53°30' E 009°57'3 2.6
2014-Oct-27 10:33N 53°32' E 009°55'9 9.3
2014-Oct-27 09:33N 53°34' E 009°40'9 9.4
2014-Oct-27 08:33N 53°41' E 009°30'10 9.5
2014-Oct-27 07:33N 53°50' E 009°21'8 8.5
2014-Oct-27 06:33N 53°53' E 009°09'6 5.5
2014-Oct-27 05:29N 53°58' E 009°15'16 8.1
2014-Oct-27 03:33N 54°11' E 009°30'8 8.0
2014-Oct-27 02:30N 54°17' E 009°40'8 8.1
2014-Oct-27 01:33N 54°22' E 009°50'7 7.0
2014-Oct-27 00:33N 54°22' E 010°02'4 3.8
2014-Oct-26 23:33N 54°22' E 010°09'2 2.0
2014-Oct-26 22:33N 54°23' E 010°11'1010.2
2014-Oct-26 21:33N 54°31' E 010°22'10 9.6
2014-Oct-26 20:33N 54°35' E 010°37'32 9.6
2014-Oct-26 17:15N 54°30' E 011°31'810.4
2014-Oct-26 16:29N 54°27' E 011°44'1010.2
2014-Oct-26 15:33N 54°27' E 012°00'60 9.5
2014-Oct-26 09:17N 54°57' E 013°30'710.2
2014-Oct-26 08:33N 54°59' E 013°42'1010.2
2014-Oct-26 07:33N 55°02' E 013°59'10 9.8
2014-Oct-26 06:33N 55°09' E 014°11'1010.3
2014-Oct-26 05:33N 55°17' E 014°22'1010.5
2014-Oct-26 04:33N 55°25' E 014°34'1010.3
2014-Oct-26 03:33N 55°30' E 014°50'1110.9
2014-Oct-26 02:31N 55°36' E 015°08'188 4.0
2014-Oct-24 03:24N 55°44' E 020°40'20 4.0
2014-Oct-23 22:19N 55°46' E 020°04'11 9.9
2014-Oct-23 21:11N 55°46' E 019°44'14510.7
2014-Oct-23 07:33N 55°32' E 015°28'1110.5
2014-Oct-23 06:33N 55°29' E 015°10'1110.9
2014-Oct-23 05:33N 55°26' E 014°52'1010.5
2014-Oct-23 04:33N 55°21' E 014°36'1111.2
2014-Oct-23 03:33N 55°12' E 014°23'1111.3
2014-Oct-23 02:33N 55°03' E 014°11'1110.9
2014-Oct-23 01:33N 54°58' E 013°54'6218.5
2014-Oct-22 22:14N 54°33' E 012°17'3 3.5
2014-Oct-22 21:30N 54°30' E 012°16'3 2.8
2014-Oct-22 20:33N 54°28' E 012°14'2 2.4
2014-Oct-22 19:33N 54°30' E 012°15'10 9.9
2014-Oct-22 18:33N 54°25' E 012°01'4511.2
2014-Oct-22 14:33N 54°34' E 010°45'1111.1
2014-Oct-22 13:32N 54°31' E 010°26'1010.5
2014-Oct-22 12:33N 54°25' E 010°13'4 4.0
2014-Oct-22 11:33N 54°22' E 010°08'7 7.3
2014-Oct-22 10:33N 54°21' E 009°55'7 7.4
2014-Oct-22 09:33N 54°19' E 009°43'7 7.4
2014-Oct-22 08:33N 54°13' E 009°36'16 7.3
2014-Oct-22 06:19N 54°00' E 009°18'6 8.3
2014-Oct-22 05:33N 53°55' E 009°12'12 3.9
2014-Oct-22 02:33N 53°50' E 008°53'10 9.8
2014-Oct-22 01:33N 53°56' E 008°40'1010.3
2014-Oct-22 00:33N 53°59' E 008°23'1110.7
2014-Oct-21 23:33N 53°59' E 008°05'8 7.5
2014-Oct-21 22:33N 53°57' E 007°52'9 7.8
2014-Oct-21 21:27N 53°55' E 007°38'56 9.5
2014-Oct-21 15:33N 53°41' E 006°06'1211.9
2014-Oct-21 14:33N 53°38' E 005°47'1211.6
2014-Oct-21 13:33N 53°34' E 005°28'1211.5
2014-Oct-21 12:33N 53°31' E 005°10'1111.1
2014-Oct-21 11:33N 53°27' E 004°53'1010.3
2014-Oct-21 10:33N 53°20' E 004°39'3610.7
2014-Oct-21 07:10N 52°48' E 004°12'910.4
2014-Oct-21 06:20N 52°41' E 004°02'4711.1
2014-Oct-21 02:07N 52°01' E 003°25'712.2
2014-Oct-21 01:33N 51°54' E 003°22'1111.3
2014-Oct-21 00:33N 51°43' E 003°17'1010.2
2014-Oct-20 23:33N 51°34' E 003°25'1010.4
2014-Oct-20 22:33N 51°26' E 003°36'7 6.6
2014-Oct-20 21:33N 51°22' E 003°44'8 8.2
2014-Oct-20 20:33N 51°24' E 003°57'6 6.1
2014-Oct-20 19:33N 51°22' E 004°07'8 8.3
2014-Oct-20 18:34N 51°18' E 004°18'5 4.8
2014-Oct-20 17:31N 51°14' E 004°23'  

Dump ship's entire track history